createdAt,value
2023-04-19T00:00:08.515Z,15.17
2023-04-19T00:02:31.709Z,13.80
2023-04-19T00:04:53.638Z,17.80
2023-04-19T00:07:16.942Z,15.37
2023-04-19T00:09:38.694Z,15.40
2023-04-19T00:12:01.202Z,15.77
2023-04-19T00:14:22.980Z,14.23
2023-04-19T00:16:45.823Z,14.73
2023-04-19T00:19:07.524Z,14.43
2023-04-19T00:21:29.240Z,15.27
2023-04-19T00:23:51.605Z,17.53
2023-04-19T00:26:15.649Z,15.47
2023-04-19T00:28:42.561Z,14.37
2023-04-19T00:31:04.337Z,15.33
2023-04-19T00:33:26.031Z,17.07
2023-04-19T00:35:47.844Z,15.50
2023-04-19T00:38:09.526Z,16.43
2023-04-19T00:40:32.406Z,16.97
2023-04-19T00:42:55.372Z,16.00
2023-04-19T00:45:17.018Z,16.80
2023-04-19T00:47:39.069Z,15.90
2023-04-19T00:50:00.961Z,15.90
2023-04-19T00:52:23.443Z,15.90
2023-04-19T00:54:45.919Z,14.30
2023-04-19T00:57:08.625Z,16.83
2023-04-19T00:59:31.203Z,15.97
2023-04-19T01:01:53.359Z,16.47
2023-04-19T01:04:16.607Z,14.07
2023-04-19T01:06:41.154Z,16.43
2023-04-19T01:09:05.831Z,16.03
2023-04-19T01:11:29.138Z,15.20
2023-04-19T01:13:51.356Z,16.93
2023-04-19T01:16:13.382Z,15.30
2023-04-19T01:18:37.563Z,16.40
2023-04-19T01:20:59.981Z,14.07
2023-04-19T01:23:21.727Z,15.07
2023-04-19T01:25:44.245Z,16.40
2023-04-19T01:28:06.335Z,15.77
2023-04-19T01:30:30.444Z,17.40
2023-04-19T01:32:52.094Z,16.00
2023-04-19T01:35:15.104Z,16.20
2023-04-19T01:37:37.352Z,17.57
2023-04-19T01:39:58.930Z,18.23
2023-04-19T01:42:22.917Z,16.83
2023-04-19T01:44:44.677Z,16.80
2023-04-19T01:47:06.610Z,17.63
2023-04-19T01:49:29.249Z,15.83
2023-04-19T01:51:51.082Z,16.27
2023-04-19T01:54:13.096Z,17.37
2023-04-19T01:56:36.247Z,14.70
2023-04-19T01:58:58.024Z,15.63
2023-04-19T02:01:19.824Z,15.97
2023-04-19T02:03:42.629Z,18.90
2023-04-19T02:06:04.779Z,15.90
2023-04-19T02:08:27.576Z,16.30
2023-04-19T02:10:50.209Z,16.52
2023-04-19T02:13:12.290Z,18.20
2023-04-19T02:15:34.099Z,15.50
2023-04-19T02:17:55.863Z,14.63
2023-04-19T02:20:17.562Z,15.73
2023-04-19T02:22:39.330Z,14.23
2023-04-19T02:25:01.385Z,16.93
2023-04-19T02:29:47.096Z,14.87
2023-04-19T02:32:08.955Z,16.63
2023-04-19T02:34:34.568Z,17.52
2023-04-19T02:36:56.265Z,15.43
2023-04-19T02:39:17.966Z,14.37
2023-04-19T02:41:39.681Z,16.13
2023-04-19T02:44:02.464Z,14.33
2023-04-19T02:46:24.193Z,17.37
2023-04-19T02:48:46.730Z,16.30
2023-04-19T02:51:08.578Z,14.97
2023-04-19T02:53:32.510Z,14.35
2023-04-19T02:55:54.495Z,15.33
2023-04-19T02:58:16.100Z,14.30
2023-04-19T03:00:58.050Z,16.07
2023-04-19T03:03:19.904Z,15.63
2023-04-19T03:05:41.669Z,16.60
2023-04-19T03:08:03.397Z,16.33
2023-04-19T03:10:26.196Z,17.60
2023-04-19T03:12:47.859Z,16.73
2023-04-19T03:15:10.482Z,17.70
2023-04-19T03:17:32.339Z,15.97
2023-04-19T03:19:54.299Z,18.27
2023-04-19T03:22:16.259Z,15.30
2023-04-19T03:24:38.202Z,15.03
2023-04-19T03:27:11.296Z,18.30
2023-04-19T03:29:32.989Z,16.13
2023-04-19T03:31:58.321Z,15.50
2023-04-19T03:34:20.051Z,15.90
2023-04-19T03:36:43.677Z,16.75
2023-04-19T03:39:06.294Z,18.37
2023-04-19T03:41:28.074Z,15.77
2023-04-19T03:44:17.427Z,16.03
2023-04-19T03:46:39.993Z,13.55
2023-04-19T03:49:02.138Z,14.43
2023-04-19T03:51:25.049Z,12.13
2023-04-19T03:53:47.485Z,15.67
2023-04-19T03:56:12.224Z,14.00
2023-04-19T03:58:34.012Z,12.37
2023-04-19T04:01:01.299Z,12.20
2023-04-19T04:03:23.052Z,13.17
2023-04-19T04:05:45.320Z,12.83
2023-04-19T04:08:07.757Z,12.47
2023-04-19T04:10:29.481Z,11.80
2023-04-19T04:12:51.388Z,13.50
2023-04-19T04:15:20.659Z,15.07
2023-04-19T04:17:46.755Z,20.27
2023-04-19T04:20:09.868Z,12.53
2023-04-19T04:22:31.595Z,12.90
2023-04-19T04:24:54.159Z,12.07
2023-04-19T04:27:23.924Z,12.60
2023-04-19T04:29:49.471Z,12.73
2023-04-19T04:32:12.202Z,12.67
2023-04-19T04:34:37.340Z,12.23
2023-04-19T04:37:04.305Z,12.87
2023-04-19T04:39:26.698Z,13.43
2023-04-19T04:41:49.619Z,14.23
2023-04-19T04:44:13.089Z,12.63
2023-04-19T04:46:36.511Z,12.60
2023-04-19T04:48:58.334Z,14.33
2023-04-19T04:51:20.277Z,14.10
2023-04-19T04:53:44.624Z,13.77
2023-04-19T04:56:06.671Z,12.80
2023-04-19T04:58:28.420Z,12.30
2023-04-19T05:00:55.752Z,9.77
2023-04-19T05:03:20.037Z,11.40
2023-04-19T05:05:47.887Z,9.90
2023-04-19T05:08:09.875Z,10.73
2023-04-19T05:10:33.835Z,8.80
2023-04-19T05:12:56.224Z,9.23
2023-04-19T05:15:18.453Z,9.63
2023-04-19T05:17:45.345Z,10.27
2023-04-19T05:20:08.908Z,12.13
2023-04-19T05:22:31.220Z,9.30
2023-04-19T05:24:53.675Z,12.07
2023-04-19T05:27:15.600Z,9.13
2023-04-19T05:29:37.517Z,11.10
2023-04-19T05:31:59.965Z,8.73
2023-04-19T05:34:27.574Z,9.53
2023-04-19T05:36:51.191Z,9.65
2023-04-19T05:39:13.568Z,9.13
2023-04-19T05:41:35.304Z,8.03
2023-04-19T05:43:57.050Z,8.87
2023-04-19T05:46:20.112Z,9.23
2023-04-19T05:48:42.009Z,8.73
2023-04-19T05:51:23.688Z,9.37
2023-04-19T05:54:15.626Z,8.93
2023-04-19T05:56:40.980Z,7.30
2023-04-19T05:59:03.013Z,8.77
2023-04-19T06:01:24.833Z,8.43
2023-04-19T06:03:46.890Z,10.53
2023-04-19T06:06:08.973Z,9.17
2023-04-19T06:08:31.690Z,10.97
2023-04-19T06:10:58.410Z,7.07
2023-04-19T06:13:24.861Z,10.13
2023-04-19T06:15:48.523Z,9.50
2023-04-19T06:18:11.006Z,10.03
2023-04-19T06:20:41.618Z,8.83
2023-04-19T06:23:04.300Z,6.60
2023-04-19T06:25:26.088Z,6.73
2023-04-19T06:27:48.010Z,9.50
2023-04-19T06:30:11.150Z,8.67
2023-04-19T06:32:32.914Z,14.73
2023-04-19T06:34:54.859Z,9.73
2023-04-19T06:37:17.563Z,11.37
2023-04-19T06:39:39.785Z,8.17
2023-04-19T06:42:02.443Z,6.87
2023-04-19T06:44:24.765Z,7.90
2023-04-19T06:46:46.528Z,6.73
2023-04-19T06:49:08.266Z,7.57
2023-04-19T06:51:30.528Z,9.37
2023-04-19T06:53:52.286Z,9.27
2023-04-19T06:56:13.971Z,8.63
2023-04-19T06:58:35.875Z,9.87
2023-04-19T07:00:57.786Z,7.60
2023-04-19T07:03:21.520Z,8.60
2023-04-19T07:05:43.533Z,10.17
2023-04-19T07:08:05.425Z,7.73
2023-04-19T07:10:27.322Z,7.50
2023-04-19T07:12:49.175Z,9.23
2023-04-19T07:15:11.887Z,8.10
2023-04-19T07:17:36.168Z,7.23
2023-04-19T07:19:58.043Z,6.95
2023-04-19T07:22:19.798Z,6.80
2023-04-19T07:24:44.481Z,7.47
2023-04-19T07:27:06.195Z,7.78
2023-04-19T07:29:27.936Z,7.47
2023-04-19T07:31:49.782Z,10.47
2023-04-19T07:34:11.563Z,7.93
2023-04-19T07:36:35.096Z,7.13
2023-04-19T07:38:57.861Z,6.22
2023-04-19T07:41:19.791Z,6.97
2023-04-19T07:43:41.635Z,8.10
2023-04-19T07:46:11.028Z,6.40
2023-04-19T07:48:32.907Z,7.03
2023-04-19T07:50:54.613Z,6.33
2023-04-19T07:53:16.944Z,7.03
2023-04-19T07:55:39.583Z,6.60
2023-04-19T07:58:02.496Z,7.43
2023-04-19T08:00:24.368Z,6.87
2023-04-19T08:02:48.233Z,6.83
2023-04-19T08:05:10.448Z,7.55
2023-04-19T08:07:32.202Z,6.13
2023-04-19T08:09:54.392Z,5.17
2023-04-19T08:12:26.879Z,5.13
2023-04-19T08:15:05.242Z,5.67
2023-04-19T08:17:40.705Z,6.03
2023-04-19T08:20:06.840Z,7.00
2023-04-19T08:24:51.989Z,6.30
2023-04-19T08:27:14.159Z,5.35
2023-04-19T08:29:36.202Z,4.97
2023-04-19T08:31:58.027Z,7.80
2023-04-19T08:34:20.120Z,7.20
2023-04-19T08:36:51.619Z,3.93
2023-04-19T08:39:31.857Z,4.10
2023-04-19T08:42:06.621Z,6.07
2023-04-19T08:44:36.374Z,6.03
2023-04-19T08:47:01.218Z,5.07
2023-04-19T08:51:45.170Z,4.37
2023-04-19T08:54:07.758Z,5.83
2023-04-19T08:56:35.676Z,4.37
2023-04-19T08:59:19.524Z,5.83
2023-04-19T09:01:42.338Z,5.43
2023-04-19T09:04:26.304Z,9.57
2023-04-19T09:06:49.443Z,6.23
2023-04-19T09:11:46.607Z,7.22
2023-04-19T09:14:15.548Z,5.63
2023-04-19T09:16:40.336Z,4.73
2023-04-19T09:21:31.796Z,7.57
2023-04-19T09:23:53.900Z,4.43
2023-04-19T09:26:23.325Z,5.00
2023-04-19T09:29:02.172Z,8.10
2023-04-19T09:31:43.265Z,5.43
2023-04-19T09:34:18.410Z,7.97
2023-04-19T09:36:41.211Z,4.13
2023-04-19T09:39:02.940Z,4.20
2023-04-19T09:41:28.498Z,3.87
2023-04-19T09:46:37.234Z,4.73
2023-04-19T09:49:25.069Z,2.40
2023-04-19T09:51:56.212Z,3.00
2023-04-19T09:54:20.445Z,3.97
2023-04-19T09:56:43.974Z,2.43
2023-04-19T09:59:19.328Z,3.33
2023-04-19T10:02:05.092Z,2.63
2023-04-19T10:04:43.605Z,1.63
2023-04-19T10:09:49.516Z,4.17
2023-04-19T10:14:43.648Z,2.07
2023-04-19T10:17:06.160Z,8.03
2023-04-19T10:19:29.339Z,4.77
2023-04-19T10:21:51.898Z,2.33
2023-04-19T10:24:15.700Z,3.83
2023-04-19T10:27:08.701Z,6.20
2023-04-19T10:30:07.051Z,3.30
2023-04-19T10:32:39.758Z,3.07
2023-04-19T10:35:04.770Z,4.63
2023-04-19T10:37:26.750Z,2.33
2023-04-19T10:39:48.455Z,2.67
2023-04-19T10:42:10.644Z,4.07
2023-04-19T10:44:32.421Z,4.63
2023-04-19T10:46:54.833Z,2.60
2023-04-19T10:49:16.892Z,3.00
2023-04-19T10:51:43.351Z,4.23
2023-04-19T10:54:09.849Z,4.43
2023-04-19T10:56:34.519Z,2.87
2023-04-19T10:59:02.733Z,2.57
2023-04-19T11:01:45.713Z,3.33
2023-04-19T11:04:09.920Z,4.43
2023-04-19T11:06:33.609Z,3.38
2023-04-19T11:08:55.622Z,2.60
2023-04-19T11:11:17.583Z,3.37
2023-04-19T11:13:39.176Z,2.43
2023-04-19T11:16:07.649Z,2.10
2023-04-19T11:18:32.667Z,4.43
2023-04-19T11:20:55.010Z,3.03
2023-04-19T11:23:17.954Z,3.77
2023-04-19T11:25:39.743Z,3.90
2023-04-19T11:28:01.724Z,2.73
2023-04-19T11:30:32.054Z,2.80
2023-04-19T11:32:56.384Z,2.63
2023-04-19T11:35:27.901Z,3.25
2023-04-19T11:37:50.397Z,4.83
2023-04-19T11:40:19.935Z,3.30
2023-04-19T11:42:41.739Z,2.67
2023-04-19T11:45:03.867Z,5.30
2023-04-19T11:47:29.400Z,2.57
2023-04-19T11:49:51.266Z,3.23
2023-04-19T11:52:23.025Z,3.87
2023-04-19T11:54:46.827Z,2.57
2023-04-19T11:57:09.410Z,3.53
2023-04-19T11:59:35.330Z,2.80
2023-04-19T12:02:04.253Z,3.60
2023-04-19T12:04:28.448Z,4.13
2023-04-19T12:07:01.897Z,3.47
2023-04-19T12:09:24.229Z,3.50
2023-04-19T12:11:50.675Z,3.07
2023-04-19T12:14:17.092Z,3.30
2023-04-19T12:16:39.153Z,3.37
2023-04-19T12:19:18.209Z,4.47
2023-04-19T12:21:41.017Z,4.43
2023-04-19T12:24:03.733Z,4.87
2023-04-19T12:26:29.866Z,4.93
2023-04-19T12:28:51.667Z,3.00
2023-04-19T12:31:13.403Z,4.40
2023-04-19T12:33:35.326Z,2.40
2023-04-19T12:35:57.041Z,3.97
2023-04-19T12:38:18.934Z,4.03
2023-04-19T12:40:40.804Z,4.03
2023-04-19T12:43:02.963Z,3.33
2023-04-19T12:45:25.010Z,3.93
2023-04-19T12:47:48.760Z,3.23
2023-04-19T12:50:10.921Z,4.68
2023-04-19T12:52:33.801Z,4.80
2023-04-19T12:54:55.630Z,4.03
2023-04-19T12:57:17.583Z,2.77
2023-04-19T12:59:39.444Z,4.37
2023-04-19T13:02:01.696Z,3.07
2023-04-19T13:04:24.217Z,3.93
2023-04-19T13:06:46.821Z,5.73
2023-04-19T13:09:14.341Z,4.17
2023-04-19T13:11:36.823Z,3.27
2023-04-19T13:13:58.609Z,3.97
2023-04-19T13:16:21.037Z,3.37
2023-04-19T13:18:43.200Z,4.80
2023-04-19T13:21:07.452Z,4.93
2023-04-19T13:23:30.408Z,4.97
2023-04-19T13:25:52.396Z,4.17
2023-04-19T13:28:14.449Z,4.70
2023-04-19T13:30:36.353Z,4.77
2023-04-19T13:32:58.159Z,7.43
2023-04-19T13:35:20.200Z,5.33
2023-04-19T13:37:44.362Z,3.83
2023-04-19T13:40:18.779Z,3.58
2023-04-19T13:42:41.627Z,4.27
2023-04-19T13:45:03.817Z,3.57
2023-04-19T13:47:25.886Z,5.60
2023-04-19T13:49:52.149Z,4.43
2023-04-19T13:52:14.942Z,4.20
2023-04-19T13:54:36.727Z,5.10
2023-04-19T13:56:58.825Z,5.03
2023-04-19T13:59:21.956Z,4.97
2023-04-19T14:01:43.883Z,4.80
2023-04-19T14:04:06.156Z,5.70
2023-04-19T14:06:28.376Z,3.87
2023-04-19T14:08:51.412Z,6.77
2023-04-19T14:11:13.737Z,4.23
2023-04-19T14:13:35.805Z,3.97
2023-04-19T14:15:58.072Z,3.60
2023-04-19T14:18:20.266Z,5.57
2023-04-19T14:20:42.526Z,6.40
2023-04-19T14:23:04.847Z,4.37
2023-04-19T14:25:27.448Z,4.53
2023-04-19T14:27:49.400Z,4.10
2023-04-19T14:30:11.632Z,3.53
2023-04-19T14:32:33.964Z,3.40
2023-04-19T14:34:56.440Z,5.57
2023-04-19T14:37:19.463Z,6.83
2023-04-19T14:39:41.449Z,6.03
2023-04-19T14:42:03.610Z,3.80
2023-04-19T14:44:25.390Z,7.57
2023-04-19T14:46:47.568Z,4.73
2023-04-19T14:49:09.958Z,4.00
2023-04-19T14:51:33.168Z,3.63
2023-04-19T14:53:54.996Z,5.30
2023-04-19T14:56:17.305Z,4.73
2023-04-19T14:58:39.342Z,6.80
2023-04-19T15:01:11.795Z,5.03
2023-04-19T15:03:34.333Z,4.87
2023-04-19T15:05:56.409Z,4.20
2023-04-19T15:10:46.401Z,4.90
2023-04-19T15:13:08.236Z,5.63
2023-04-19T15:15:30.053Z,4.20
2023-04-19T15:17:52.774Z,7.20
2023-04-19T15:20:14.923Z,6.67
2023-04-19T15:22:37.381Z,6.37
2023-04-19T15:25:02.062Z,5.73
2023-04-19T15:27:23.892Z,4.65
2023-04-19T15:29:47.623Z,4.37
2023-04-19T15:32:09.441Z,4.13
2023-04-19T15:34:31.319Z,5.53
2023-04-19T15:36:54.162Z,9.17
2023-04-19T15:39:16.337Z,6.03
2023-04-19T15:41:38.394Z,4.30
2023-04-19T15:44:01.243Z,5.43
2023-04-19T15:46:23.299Z,4.50
2023-04-19T15:48:48.290Z,9.03
2023-04-19T15:51:11.432Z,5.93
2023-04-19T15:53:33.449Z,6.43
2023-04-19T15:55:56.730Z,6.83
2023-04-19T15:58:19.522Z,5.03
2023-04-19T16:00:41.291Z,4.63
2023-04-19T16:03:03.413Z,5.80
2023-04-19T16:05:26.021Z,5.33
2023-04-19T16:07:47.924Z,4.67
2023-04-19T16:10:11.662Z,5.90
2023-04-19T16:12:33.730Z,5.53
2023-04-19T16:14:55.521Z,4.67
2023-04-19T16:17:17.270Z,4.03
2023-04-19T16:19:38.947Z,4.30
2023-04-19T16:22:02.349Z,4.47
2023-04-19T16:24:24.088Z,5.37
2023-04-19T16:26:46.845Z,3.90
2023-04-19T16:29:08.850Z,5.10
2023-04-19T16:31:30.810Z,5.20
2023-04-19T16:33:52.595Z,5.33
2023-04-19T16:36:14.349Z,6.33
2023-04-19T16:38:36.589Z,3.97
2023-04-19T16:41:00.613Z,5.63
2023-04-19T16:43:22.522Z,5.00
2023-04-19T16:45:44.564Z,3.73
2023-04-19T16:48:06.744Z,4.80
2023-04-19T16:50:28.683Z,5.33
2023-04-19T16:52:50.591Z,5.00
2023-04-19T16:55:12.430Z,4.27
2023-04-19T16:57:34.655Z,3.70
2023-04-19T16:59:56.653Z,3.87
2023-04-19T17:02:19.504Z,3.83
2023-04-19T17:04:42.318Z,3.20
2023-04-19T17:07:04.429Z,3.47
2023-04-19T17:09:26.463Z,5.13
2023-04-19T17:11:48.151Z,3.63
2023-04-19T17:14:10.116Z,3.50
2023-04-19T17:16:31.979Z,3.80
2023-04-19T17:18:56.346Z,3.87
2023-04-19T17:21:18.141Z,6.30
2023-04-19T17:23:39.972Z,4.23
2023-04-19T17:26:01.979Z,5.17
2023-04-19T17:28:23.760Z,2.80
2023-04-19T17:30:45.817Z,3.80
2023-04-19T17:33:07.738Z,3.97
2023-04-19T17:35:29.570Z,3.80
2023-04-19T17:37:52.119Z,2.77
2023-04-19T17:40:14.269Z,2.60
2023-04-19T17:42:36.054Z,4.83
2023-04-19T17:44:58.532Z,4.80
2023-04-19T17:47:21.264Z,3.90
2023-04-19T17:49:46.105Z,2.93
2023-04-19T17:52:07.871Z,4.73
2023-04-19T17:54:30.046Z,3.13
2023-04-19T17:56:52.822Z,3.53
2023-04-19T17:59:14.776Z,2.30
2023-04-19T18:01:36.774Z,3.90
2023-04-19T18:03:59.030Z,5.20
2023-04-19T18:06:21.974Z,2.63
2023-04-19T18:08:44.029Z,4.63
2023-04-19T18:11:07.045Z,4.93
2023-04-19T18:13:28.757Z,3.43
2023-04-19T18:15:50.360Z,2.90
2023-04-19T18:18:12.025Z,3.40
2023-04-19T18:20:35.072Z,5.23
2023-04-19T18:22:59.205Z,4.20
2023-04-19T18:25:20.791Z,5.13
2023-04-19T18:27:42.522Z,4.73
2023-04-19T18:30:06.544Z,4.93
2023-04-19T18:32:30.139Z,4.38
2023-04-19T18:34:53.195Z,2.72
2023-04-19T18:37:16.946Z,5.47
2023-04-19T18:39:38.555Z,2.85
2023-04-19T18:42:01.852Z,4.00
2023-04-19T18:44:44.104Z,4.13
2023-04-19T18:47:05.368Z,4.10
2023-04-19T18:49:26.978Z,4.97
2023-04-19T18:51:50.342Z,5.50
2023-04-19T18:54:11.962Z,5.10
2023-04-19T19:01:21.552Z,5.80
2023-04-19T19:08:30.440Z,3.50
2023-04-19T19:15:40.691Z,5.97
2023-04-19T19:18:03.775Z,6.32
2023-04-19T19:20:26.045Z,3.40
2023-04-19T19:22:48.441Z,5.30
2023-04-19T19:25:12.157Z,3.63
2023-04-19T19:27:35.328Z,4.53
2023-04-19T19:29:58.795Z,6.80
2023-04-19T19:32:20.674Z,4.20
2023-04-19T19:34:51.852Z,6.73
2023-04-19T19:37:16.937Z,4.40
2023-04-19T19:39:38.716Z,4.83
2023-04-19T19:42:05.367Z,4.70
2023-04-19T19:44:28.111Z,7.87
2023-04-19T19:46:49.741Z,6.07
2023-04-19T19:49:13.203Z,4.83
2023-04-19T19:53:59.943Z,4.67
2023-04-19T19:56:23.874Z,7.07
2023-04-19T19:58:50.289Z,7.10
2023-04-19T20:01:13.398Z,5.00
2023-04-19T20:03:37.953Z,6.30
2023-04-19T20:06:00.172Z,5.53
2023-04-19T20:08:23.678Z,6.33
2023-04-19T20:10:45.774Z,6.70
2023-04-19T20:13:09.076Z,4.57
2023-04-19T20:15:31.038Z,7.17
2023-04-19T20:17:52.682Z,7.90
2023-04-19T20:20:14.917Z,5.00
2023-04-19T20:22:38.117Z,4.90
2023-04-19T20:25:00.459Z,4.47
2023-04-19T20:27:22.202Z,8.93
2023-04-19T20:29:43.952Z,5.17
2023-04-19T20:32:05.974Z,4.53
2023-04-19T20:34:48.013Z,5.93
2023-04-19T20:37:30.655Z,5.07
2023-04-19T20:40:15.019Z,4.80
2023-04-19T20:42:56.777Z,5.53
2023-04-19T20:45:38.412Z,5.63
2023-04-19T20:48:20.118Z,6.80
2023-04-19T20:51:01.806Z,7.30
2023-04-19T20:53:43.500Z,6.00
2023-04-19T20:56:25.570Z,7.70
2023-04-19T20:59:07.355Z,4.47
2023-04-19T21:01:49.027Z,8.63
2023-04-19T21:04:30.845Z,7.47
2023-04-19T21:07:12.622Z,6.27
2023-04-19T21:09:54.202Z,5.27
2023-04-19T21:12:35.968Z,6.17
2023-04-19T21:14:57.643Z,5.37
2023-04-19T21:17:20.660Z,7.00
2023-04-19T21:19:42.411Z,5.47
2023-04-19T21:22:04.120Z,5.60
2023-04-19T21:24:26.210Z,4.20
2023-04-19T21:26:47.952Z,5.70
2023-04-19T21:29:11.557Z,5.17
2023-04-19T21:31:33.223Z,5.67
2023-04-19T21:33:54.898Z,5.23
2023-04-19T21:36:16.535Z,7.17
2023-04-19T21:38:38.160Z,8.87
2023-04-19T21:40:59.780Z,4.50
2023-04-19T21:43:23.179Z,6.07
2023-04-19T21:45:44.769Z,4.53
2023-04-19T21:48:06.552Z,4.30
2023-04-19T21:50:28.316Z,6.33
2023-04-19T21:52:49.957Z,5.30
2023-04-19T21:55:11.617Z,5.87
2023-04-19T21:57:33.299Z,6.53
2023-04-19T21:59:54.949Z,10.03
2023-04-19T22:02:17.154Z,4.87
2023-04-19T22:04:39.654Z,7.23
2023-04-19T22:07:02.629Z,7.53
2023-04-19T22:09:24.638Z,5.10
2023-04-19T22:11:47.128Z,4.97
2023-04-19T22:14:09.123Z,5.13
2023-04-19T22:16:32.732Z,7.37
2023-04-19T22:18:54.499Z,5.18
2023-04-19T22:21:16.163Z,5.37
2023-04-19T22:23:38.047Z,4.50
2023-04-19T22:26:00.239Z,4.50
2023-04-19T22:28:21.930Z,10.57
2023-04-19T22:30:43.529Z,5.07
2023-04-19T22:33:05.356Z,5.40
2023-04-19T22:35:27.280Z,5.97
2023-04-19T22:37:48.920Z,5.83
2023-04-19T22:40:12.066Z,4.40
2023-04-19T22:42:33.740Z,8.17
2023-04-19T22:44:55.509Z,7.40
2023-04-19T22:47:17.480Z,5.33
2023-04-19T22:49:43.027Z,5.60
2023-04-19T22:52:05.050Z,7.53
2023-04-19T22:54:26.926Z,3.90
2023-04-19T22:56:48.603Z,5.10
2023-04-19T22:59:10.556Z,5.43
2023-04-19T23:01:32.254Z,5.00
2023-04-19T23:03:53.950Z,5.97
2023-04-19T23:06:17.868Z,5.40
2023-04-19T23:08:40.335Z,4.05
2023-04-19T23:11:02.005Z,4.87
2023-04-19T23:13:23.745Z,5.70
2023-04-19T23:15:45.841Z,4.57
2023-04-19T23:18:07.730Z,6.33
2023-04-19T23:20:30.744Z,5.70
2023-04-19T23:22:52.406Z,4.30
2023-04-19T23:25:14.127Z,4.80
2023-04-19T23:27:36.240Z,4.47
2023-04-19T23:29:57.877Z,4.23
2023-04-19T23:32:19.699Z,4.07
2023-04-19T23:34:41.466Z,4.83
2023-04-19T23:37:03.186Z,4.47
2023-04-19T23:39:24.933Z,6.33
2023-04-19T23:41:46.552Z,3.27
2023-04-19T23:44:08.251Z,4.03
2023-04-19T23:46:29.920Z,5.07
2023-04-19T23:48:51.581Z,4.07
2023-04-19T23:51:14.634Z,3.60
2023-04-19T23:53:36.325Z,6.00
2023-04-19T23:55:57.956Z,3.40
2023-04-19T23:58:19.701Z,4.53
